Time;durP1;ratioP1;P1;durP2;ratioP2;P2;SDS_P1;SDS_P2;PMS_P1;PMS_P2;Temp;Humidity;BMP_temperature;BMP_pressure;BME280_temperature;BME280_humidity;BME280_pressure;Samples;Min_cycle;Max_cycle;Signal;HPM_P1;HPM_P2
2022/11/25 00:01:39;;;;;;;20.20;3.88;;;;;;;;;;4949483;28;20035;-73
2022/11/25 00:04:05;;;;;;;18.35;4.97;;;;;;;;;;4950279;28;20048;-72
2022/11/25 00:06:34;;;;;;;20.17;4.13;;;;;;;;;;4951198;28;20031;-74
2022/11/25 00:09:03;;;;;;;22.42;4.35;;;;;;;;;;4947117;28;20016;-75
2022/11/25 00:11:29;;;;;;;25.00;3.75;;;;;;;;;;4949081;28;20039;-74
2022/11/25 00:13:56;;;;;;;27.75;4.18;;;;;;;;;;4946481;28;20031;-76
2022/11/25 00:16:23;;;;;;;19.98;4.18;;;;;;;;;;4953008;28;20098;-74
2022/11/25 00:18:53;;;;;;;23.52;4.70;;;;;;;;;;4955589;28;20492;-75
2022/11/25 00:21:20;;;;;;;25.73;3.15;;;;;;;;;;4942299;28;20362;-76
2022/11/25 00:23:53;;;;;;;16.45;3.40;;;;;;;;;;4952860;28;20103;-74
2022/11/25 00:26:20;;;;;;;18.05;4.72;;;;;;;;;;4945593;28;20035;-73
2022/11/25 00:28:46;;;;;;;13.90;3.33;;;;;;;;;;4950221;28;20027;-74
2022/11/25 00:31:15;;;;;;;22.67;4.03;;;;;;;;;;4931939;28;20039;-73
2022/11/25 00:33:42;;;;;;;23.88;3.03;;;;;;;;;;4951359;28;20043;-75
2022/11/25 00:36:18;;;;;;;19.90;3.65;;;;;;;;;;4949053;28;20085;-74
2022/11/25 00:38:45;;;;;;;23.98;4.05;;;;;;;;;;4947777;28;20503;-75
2022/11/25 00:46:41;;;;;;;19.00;4.25;;;;;;;;;;4946505;28;20083;-75
2022/11/25 00:49:07;;;;;;;18.08;3.83;;;;;;;;;;4947109;28;20050;-74
2022/11/25 00:51:33;;;;;;;19.85;4.00;;;;;;;;;;4946718;28;20027;-75
2022/11/25 00:53:59;;;;;;;16.25;3.05;;;;;;;;;;4948092;28;20392;-74
2022/11/25 00:56:25;;;;;;;19.77;3.33;;;;;;;;;;4946938;28;20034;-73
2022/11/25 00:58:52;;;;;;;20.35;4.78;;;;;;;;;;4952092;28;20035;-74
2022/11/25 01:01:19;;;;;;;12.02;3.03;;;;;;;;;;4949512;28;20217;-74
2022/11/25 01:03:45;;;;;;;13.23;2.90;;;;;;;;;;4951635;28;20741;-73
2022/11/25 01:06:11;;;;;;;21.58;3.15;;;;;;;;;;4945415;28;20046;-75
2022/11/25 01:08:38;;;;;;;15.15;2.85;;;;;;;;;;4947239;28;20038;-74
2022/11/25 01:11:09;;;;;;;22.20;3.35;;;;;;;;;;4950483;28;20400;-74
2022/11/25 01:13:36;;;;;;;14.93;2.97;;;;;;;;;;4947049;28;20023;-74
2022/11/25 01:16:05;;;;;;;20.88;4.65;;;;;;;;;;4949188;28;20637;-73
2022/11/25 01:18:32;;;;;;;21.95;3.08;;;;;;;;;;4946795;28;20483;-73
2022/11/25 01:21:08;;;;;;;19.63;3.47;;;;;;;;;;4944574;28;22839;-76
2022/11/25 01:23:34;;;;;;;19.95;3.97;;;;;;;;;;4946276;28;20031;-74
2022/11/25 01:26:01;;;;;;;16.05;3.17;;;;;;;;;;4947380;28;20439;-73
2022/11/25 01:28:27;;;;;;;19.60;3.17;;;;;;;;;;4949319;28;20054;-73
2022/11/25 01:31:07;;;;;;;17.73;3.38;;;;;;;;;;4946326;28;20050;-73
2022/11/25 01:33:33;;;;;;;17.90;3.70;;;;;;;;;;4951237;28;20026;-72
2022/11/25 01:36:04;;;;;;;22.00;3.60;;;;;;;;;;4949600;28;20046;-74
2022/11/25 01:38:30;;;;;;;19.90;4.00;;;;;;;;;;4946946;28;20539;-73
2022/11/25 01:40:56;;;;;;;18.92;3.15;;;;;;;;;;4950501;28;20020;-74
2022/11/25 01:43:22;;;;;;;11.38;3.05;;;;;;;;;;4945541;28;20042;-73
2022/11/25 01:45:48;;;;;;;13.80;2.95;;;;;;;;;;4947433;28;20400;-74
2022/11/25 01:48:47;;;;;;;17.50;3.58;;;;;;;;;;4945150;28;20571;-73
2022/11/25 01:51:23;;;;;;;17.17;3.90;;;;;;;;;;4904507;29;20039;-73
2022/11/25 01:53:50;;;;;;;19.33;4.30;;;;;;;;;;4948184;28;20039;-73
2022/11/25 01:56:18;;;;;;;19.90;4.43;;;;;;;;;;4932014;29;20601;-74
2022/11/25 01:58:46;;;;;;;29.38;3.97;;;;;;;;;;4947078;28;20035;-74
2022/11/25 02:01:12;;;;;;;22.38;3.92;;;;;;;;;;4948332;28;20054;-74
2022/11/25 02:03:41;;;;;;;21.10;3.35;;;;;;;;;;4945415;28;20488;-73
2022/11/25 02:06:17;;;;;;;22.58;3.90;;;;;;;;;;4948720;28;20035;-75
2022/11/25 02:08:45;;;;;;;15.57;3.28;;;;;;;;;;4951632;28;20027;-75
2022/11/25 02:11:11;;;;;;;21.08;3.88;;;;;;;;;;4948856;28;20506;-74
2022/11/25 02:13:37;;;;;;;23.60;3.88;;;;;;;;;;4945599;28;20115;-76
2022/11/25 02:16:05;;;;;;;25.45;5.35;;;;;;;;;;4943081;28;20146;-73
2022/11/25 02:18:31;;;;;;;16.08;4.28;;;;;;;;;;4947763;28;20038;-74
2022/11/25 02:20:57;;;;;;;23.40;3.83;;;;;;;;;;4949438;28;20075;-74
2022/11/25 02:23:35;;;;;;;19.92;3.22;;;;;;;;;;4950372;28;22095;-74
2022/11/25 02:26:01;;;;;;;28.33;4.28;;;;;;;;;;4942292;28;20090;-74
2022/11/25 02:28:29;;;;;;;25.33;4.20;;;;;;;;;;4947485;28;20313;-74
2022/11/25 02:30:56;;;;;;;24.17;4.13;;;;;;;;;;4948374;28;20023;-73
2022/11/25 02:33:22;;;;;;;21.00;4.07;;;;;;;;;;4952930;28;20417;-73
2022/11/25 02:35:49;;;;;;;15.77;3.72;;;;;;;;;;4947232;28;20054;-74
2022/11/25 02:38:21;;;;;;;19.63;3.58;;;;;;;;;;4944852;28;20556;-73
2022/11/25 02:40:55;;;;;;;23.45;4.07;;;;;;;;;;4947088;28;20484;-77
2022/11/25 02:43:21;;;;;;;22.55;3.55;;;;;;;;;;4947611;28;20035;-75
2022/11/25 02:46:01;;;;;;;24.27;3.78;;;;;;;;;;4946394;28;20496;-73
2022/11/25 02:48:29;;;;;;;24.15;3.80;;;;;;;;;;4947165;28;20105;-74
2022/11/25 02:50:55;;;;;;;22.95;4.63;;;;;;;;;;4947347;28;20102;-74
2022/11/25 02:53:22;;;;;;;26.92;5.97;;;;;;;;;;4946415;28;20392;-73
2022/11/25 02:55:48;;;;;;;19.83;3.80;;;;;;;;;;4925455;28;20058;-76
2022/11/25 02:58:14;;;;;;;19.23;3.70;;;;;;;;;;4943785;28;20031;-73
2022/11/25 03:00:41;;;;;;;21.80;3.70;;;;;;;;;;4950441;28;20075;-74
2022/11/25 03:03:07;;;;;;;26.63;5.00;;;;;;;;;;4951515;28;20043;-73
2022/11/25 03:05:33;;;;;;;22.65;4.03;;;;;;;;;;4949200;28;20035;-73
2022/11/25 03:07:59;;;;;;;23.77;4.97;;;;;;;;;;4945941;28;20265;-77
2022/11/25 03:10:25;;;;;;;19.00;4.40;;;;;;;;;;4943664;28;20027;-76
2022/11/25 03:12:51;;;;;;;28.33;4.55;;;;;;;;;;4942975;28;20043;-75
2022/11/25 03:15:18;;;;;;;20.85;4.22;;;;;;;;;;4948707;28;20098;-74
2022/11/25 03:17:44;;;;;;;23.95;5.35;;;;;;;;;;4931690;28;20039;-77
2022/11/25 03:20:11;;;;;;;21.38;4.35;;;;;;;;;;4951578;28;20055;-74
2022/11/25 03:22:38;;;;;;;22.67;4.82;;;;;;;;;;4950625;28;20039;-74
2022/11/25 03:25:04;;;;;;;20.75;4.30;;;;;;;;;;4951586;28;20039;-73
2022/11/25 03:27:30;;;;;;;25.83;4.40;;;;;;;;;;4950691;28;20046;-76
2022/11/25 03:29:56;;;;;;;20.65;4.55;;;;;;;;;;4948653;28;20409;-75
2022/11/25 03:32:22;;;;;;;22.08;5.60;;;;;;;;;;4950215;28;20078;-74
2022/11/25 03:34:48;;;;;;;28.48;4.95;;;;;;;;;;4953955;28;20043;-74
2022/11/25 03:37:14;;;;;;;23.35;5.45;;;;;;;;;;4950265;28;20035;-74
2022/11/25 03:39:40;;;;;;;21.13;4.45;;;;;;;;;;4947665;28;20035;-76
2022/11/25 03:42:06;;;;;;;16.75;4.90;;;;;;;;;;4946394;28;20472;-74
2022/11/25 03:44:32;;;;;;;15.43;5.22;;;;;;;;;;4950086;28;20318;-73
2022/11/25 03:46:58;;;;;;;21.40;3.63;;;;;;;;;;4952069;28;20548;-74
2022/11/25 03:49:25;;;;;;;19.90;4.65;;;;;;;;;;4948827;28;20612;-75
2022/11/25 03:51:51;;;;;;;30.90;5.00;;;;;;;;;;4954262;28;20038;-75
2022/11/25 03:54:17;;;;;;;20.27;4.53;;;;;;;;;;4951580;28;20035;-74
2022/11/25 03:56:43;;;;;;;19.13;4.07;;;;;;;;;;4937143;29;20031;-74
2022/11/25 03:59:09;;;;;;;17.92;4.63;;;;;;;;;;4951085;28;20058;-74
2022/11/25 04:01:35;;;;;;;13.32;4.57;;;;;;;;;;4949488;28;21144;-77
2022/11/25 04:04:01;;;;;;;20.02;4.78;;;;;;;;;;4949677;28;20038;-73
2022/11/25 04:06:27;;;;;;;21.60;5.70;;;;;;;;;;4949623;28;20027;-74
2022/11/25 04:08:53;;;;;;;25.67;5.38;;;;;;;;;;4953424;28;20090;-74
2022/11/25 04:11:19;;;;;;;18.52;4.85;;;;;;;;;;4950152;28;20071;-78
2022/11/25 04:13:45;;;;;;;25.17;5.65;;;;;;;;;;4952662;28;20031;-74
2022/11/25 04:16:21;;;;;;;17.23;4.00;;;;;;;;;;4944941;28;20245;-74
2022/11/25 04:18:47;;;;;;;16.92;5.20;;;;;;;;;;4950470;28;20039;-75
2022/11/25 04:21:13;;;;;;;22.80;4.65;;;;;;;;;;4928172;29;20405;-77
2022/11/25 04:23:39;;;;;;;28.08;4.85;;;;;;;;;;4933804;29;20024;-74
2022/11/25 04:26:05;;;;;;;22.50;5.93;;;;;;;;;;4929012;29;20512;-74
2022/11/25 04:28:31;;;;;;;27.63;5.10;;;;;;;;;;4929994;29;20473;-75
2022/11/25 04:30:57;;;;;;;21.17;4.85;;;;;;;;;;4928027;29;20044;-76
2022/11/25 04:33:23;;;;;;;20.42;4.68;;;;;;;;;;4930096;29;20421;-74
2022/11/25 04:35:49;;;;;;;22.63;5.20;;;;;;;;;;4930171;29;20024;-74
2022/11/25 04:38:15;;;;;;;18.73;4.93;;;;;;;;;;4923511;29;20038;-75
2022/11/25 04:40:41;;;;;;;20.25;5.45;;;;;;;;;;4926435;29;20139;-74
2022/11/25 04:43:09;;;;;;;21.58;4.75;;;;;;;;;;4932670;29;20111;-75
2022/11/25 04:45:35;;;;;;;19.35;5.15;;;;;;;;;;4928659;29;20031;-74
2022/11/25 04:48:01;;;;;;;22.02;4.97;;;;;;;;;;4932939;29;20069;-74
2022/11/25 04:50:27;;;;;;;33.05;6.38;;;;;;;;;;4934101;29;20063;-75
2022/11/25 04:52:53;;;;;;;21.85;5.05;;;;;;;;;;4930995;29;20046;-75
2022/11/25 04:55:19;;;;;;;26.48;5.35;;;;;;;;;;4928186;29;20084;-75
2022/11/25 04:57:45;;;;;;;29.00;5.25;;;;;;;;;;4930248;29;20476;-74
2022/11/25 05:00:12;;;;;;;17.77;5.07;;;;;;;;;;4932847;29;20484;-74
2022/11/25 05:02:38;;;;;;;30.92;5.47;;;;;;;;;;4927838;29;20438;-74
2022/11/25 05:05:04;;;;;;;21.25;5.72;;;;;;;;;;4931067;29;20058;-74
2022/11/25 05:07:31;;;;;;;29.63;5.72;;;;;;;;;;4927341;29;20100;-74
2022/11/25 05:09:57;;;;;;;28.48;5.50;;;;;;;;;;4935246;29;20031;-75
2022/11/25 05:12:24;;;;;;;25.17;5.10;;;;;;;;;;4930175;29;20480;-74
2022/11/25 05:14:50;;;;;;;28.42;6.78;;;;;;;;;;4930694;29;20099;-74
2022/11/25 05:17:18;;;;;;;22.38;5.13;;;;;;;;;;4924182;29;20035;-74
2022/11/25 05:19:44;;;;;;;25.52;5.35;;;;;;;;;;4931771;28;20591;-73
2022/11/25 05:22:12;;;;;;;30.60;4.82;;;;;;;;;;4929722;29;20113;-73
2022/11/25 05:24:38;;;;;;;22.25;5.25;;;;;;;;;;4927669;29;20549;-73
2022/11/25 05:27:04;;;;;;;30.60;5.07;;;;;;;;;;4928068;29;20035;-73
2022/11/25 05:29:30;;;;;;;25.13;5.78;;;;;;;;;;4929140;29;20035;-74
2022/11/25 05:31:56;;;;;;;25.52;5.07;;;;;;;;;;4929116;29;20028;-74
2022/11/25 05:34:22;;;;;;;28.95;5.32;;;;;;;;;;4910376;29;20357;-73
2022/11/25 05:36:48;;;;;;;25.08;5.07;;;;;;;;;;4929665;29;20028;-73
2022/11/25 05:39:14;;;;;;;27.35;4.78;;;;;;;;;;4927302;29;20028;-72
2022/11/25 05:41:40;;;;;;;27.02;6.03;;;;;;;;;;4934437;29;20039;-73
2022/11/25 05:44:06;;;;;;;25.45;5.20;;;;;;;;;;4923018;29;20047;-75
2022/11/25 05:46:32;;;;;;;32.03;5.10;;;;;;;;;;4918974;29;20107;-76
2022/11/25 05:48:58;;;;;;;26.60;6.25;;;;;;;;;;4906374;29;20028;-74
2022/11/25 05:51:24;;;;;;;29.50;5.00;;;;;;;;;;4924142;29;20039;-75
2022/11/25 05:53:51;;;;;;;25.85;6.13;;;;;;;;;;4925307;29;20035;-73
2022/11/25 05:56:17;;;;;;;34.28;7.53;;;;;;;;;;4921059;29;20064;-74
2022/11/25 05:58:43;;;;;;;38.63;12.00;;;;;;;;;;4924556;29;20096;-74
2022/11/25 06:01:10;;;;;;;37.67;9.32;;;;;;;;;;4928882;29;20043;-75
2022/11/25 06:03:37;;;;;;;35.08;7.40;;;;;;;;;;4930262;29;20047;-74
2022/11/25 06:06:03;;;;;;;22.75;6.28;;;;;;;;;;4932694;29;20031;-74
2022/11/25 06:08:29;;;;;;;23.38;5.28;;;;;;;;;;4929591;29;20032;-73
2022/11/25 06:10:55;;;;;;;22.70;5.82;;;;;;;;;;4931556;29;20035;-75
2022/11/25 06:13:22;;;;;;;25.88;6.15;;;;;;;;;;4941519;29;20434;-74
2022/11/25 06:15:48;;;;;;;21.83;5.00;;;;;;;;;;4937079;29;20451;-75
2022/11/25 06:18:15;;;;;;;25.35;5.95;;;;;;;;;;4939929;29;20491;-74
2022/11/25 06:20:41;;;;;;;20.77;4.43;;;;;;;;;;4950321;28;20097;-75
2022/11/25 06:23:07;;;;;;;26.83;6.18;;;;;;;;;;4961201;28;20034;-74
2022/11/25 06:25:33;;;;;;;22.40;4.93;;;;;;;;;;4952780;28;20027;-76
2022/11/25 06:28:00;;;;;;;25.17;6.63;;;;;;;;;;4956514;28;20019;-72
2022/11/25 06:30:26;;;;;;;29.15;8.90;;;;;;;;;;4940230;28;20122;-74
2022/11/25 06:32:53;;;;;;;35.35;13.43;;;;;;;;;;4946148;28;20031;-73
2022/11/25 06:35:20;;;;;;;25.73;7.72;;;;;;;;;;4942136;28;20139;-73
2022/11/25 06:37:47;;;;;;;27.33;7.82;;;;;;;;;;4950189;28;20039;-73
2022/11/25 06:40:13;;;;;;;25.17;5.63;;;;;;;;;;4942199;28;20031;-74
2022/11/25 06:42:42;;;;;;;29.75;6.53;;;;;;;;;;4926056;28;20058;-74
2022/11/25 06:45:08;;;;;;;26.10;6.55;;;;;;;;;;4943466;28;20094;-74
2022/11/25 06:47:34;;;;;;;19.90;6.32;;;;;;;;;;4940157;28;20421;-75
2022/11/25 06:50:00;;;;;;;23.35;4.95;;;;;;;;;;4937894;28;20488;-74
2022/11/25 06:52:26;;;;;;;16.08;4.78;;;;;;;;;;4945693;28;20043;-74
2022/11/25 06:54:52;;;;;;;22.25;5.60;;;;;;;;;;4957022;28;20097;-74
2022/11/25 06:57:18;;;;;;;26.08;4.70;;;;;;;;;;4974830;28;20037;-74
2022/11/25 06:59:44;;;;;;;18.00;5.22;;;;;;;;;;4958926;28;21145;-76
2022/11/25 07:02:12;;;;;;;23.48;5.50;;;;;;;;;;4954939;28;20039;-75
2022/11/25 07:04:39;;;;;;;26.85;5.50;;;;;;;;;;4955706;28;20064;-75
2022/11/25 07:07:05;;;;;;;22.05;5.40;;;;;;;;;;4945333;28;20460;-75
2022/11/25 07:09:31;;;;;;;17.23;5.22;;;;;;;;;;4954691;28;20468;-76
2022/11/25 07:11:57;;;;;;;22.48;5.93;;;;;;;;;;4953250;28;20094;-74
2022/11/25 07:14:23;;;;;;;27.38;5.70;;;;;;;;;;4960947;28;20114;-76
2022/11/25 07:16:49;;;;;;;22.23;6.65;;;;;;;;;;4928618;28;20035;-74
2022/11/25 07:19:16;;;;;;;21.35;5.32;;;;;;;;;;4957578;28;20043;-73
2022/11/25 07:21:44;;;;;;;23.98;5.40;;;;;;;;;;4946173;29;20035;-76
2022/11/25 07:24:11;;;;;;;16.58;5.22;;;;;;;;;;4937088;29;20043;-74
2022/11/25 07:26:38;;;;;;;33.90;10.90;;;;;;;;;;4935392;29;20493;-73
2022/11/25 07:29:07;;;;;;;26.83;8.63;;;;;;;;;;4911227;29;20036;-70
2022/11/25 07:31:34;;;;;;;28.48;10.45;;;;;;;;;;4936891;29;20035;-73
2022/11/25 07:34:00;;;;;;;18.88;5.85;;;;;;;;;;4937669;29;20016;-72
2022/11/25 07:36:26;;;;;;;23.58;6.68;;;;;;;;;;4930056;29;20034;-72
2022/11/25 07:38:52;;;;;;;24.95;7.75;;;;;;;;;;4921026;29;20601;-73
2022/11/25 07:41:22;;;;;;;21.35;5.72;;;;;;;;;;4928054;29;20083;-75
2022/11/25 07:43:51;;;;;;;22.13;5.60;;;;;;;;;;4925096;29;20039;-72
2022/11/25 07:46:18;;;;;;;18.95;6.40;;;;;;;;;;4926887;29;20039;-72
2022/11/25 07:48:45;;;;;;;14.43;4.63;;;;;;;;;;4929122;29;20046;-74
2022/11/25 07:51:18;;;;;;;17.55;5.75;;;;;;;;;;4927961;29;20139;-72
2022/11/25 07:53:45;;;;;;;21.52;5.88;;;;;;;;;;4929112;29;20031;-72
2022/11/25 07:56:11;;;;;;;22.50;6.05;;;;;;;;;;4921511;29;20115;-72
2022/11/25 07:58:37;;;;;;;13.73;5.47;;;;;;;;;;4929077;29;20099;-72
2022/11/25 08:01:07;;;;;;;18.17;4.82;;;;;;;;;;4925713;29;20051;-72
2022/11/25 08:03:34;;;;;;;17.98;5.68;;;;;;;;;;4930084;28;20040;-73
2022/11/25 08:06:10;;;;;;;16.83;4.93;;;;;;;;;;4927752;29;20032;-72
2022/11/25 08:08:37;;;;;;;20.25;6.25;;;;;;;;;;4927623;29;20051;-72
2022/11/25 08:11:07;;;;;;;15.38;4.85;;;;;;;;;;4927698;29;20035;-72
2022/11/25 08:13:33;;;;;;;22.27;6.13;;;;;;;;;;4929001;29;20079;-74
2022/11/25 08:15:59;;;;;;;18.52;5.90;;;;;;;;;;4926824;29;20036;-75
2022/11/25 08:18:26;;;;;;;17.27;4.93;;;;;;;;;;4912190;29;20321;-73
2022/11/25 08:20:52;;;;;;;17.27;5.32;;;;;;;;;;4926198;28;20051;-74
2022/11/25 08:23:18;;;;;;;11.88;5.88;;;;;;;;;;4928095;29;20052;-75
2022/11/25 08:25:44;;;;;;;16.33;5.25;;;;;;;;;;4922116;29;20028;-74
2022/11/25 08:28:10;;;;;;;18.13;6.28;;;;;;;;;;4909556;29;20043;-74
2022/11/25 08:30:36;;;;;;;16.33;4.70;;;;;;;;;;4924924;29;20043;-74
2022/11/25 08:33:04;;;;;;;11.88;4.10;;;;;;;;;;4922904;29;20044;-77
2022/11/25 08:35:31;;;;;;;11.82;4.90;;;;;;;;;;4926684;29;20440;-76
2022/11/25 08:37:57;;;;;;;13.85;5.28;;;;;;;;;;4925339;29;20052;-73
2022/11/25 08:40:23;;;;;;;12.50;4.40;;;;;;;;;;4926294;29;20032;-73
2022/11/25 08:42:49;;;;;;;10.18;4.32;;;;;;;;;;4925800;29;20031;-73
2022/11/25 08:45:16;;;;;;;14.30;4.65;;;;;;;;;;4926055;29;20477;-74
2022/11/25 08:47:42;;;;;;;20.85;6.72;;;;;;;;;;4925863;29;20035;-76
2022/11/25 08:50:09;;;;;;;22.10;5.20;;;;;;;;;;4927433;29;20130;-77
2022/11/25 08:52:35;;;;;;;11.38;4.70;;;;;;;;;;4925930;29;20028;-75
2022/11/25 08:55:02;;;;;;;12.85;4.43;;;;;;;;;;4927192;29;20048;-74
2022/11/25 08:57:28;;;;;;;11.20;3.90;;;;;;;;;;4926000;29;20161;-74
2022/11/25 08:59:54;;;;;;;14.52;4.00;;;;;;;;;;4927641;29;20473;-75
2022/11/25 09:02:20;;;;;;;14.55;5.00;;;;;;;;;;4924774;29;20031;-74
2022/11/25 09:04:46;;;;;;;6.15;3.92;;;;;;;;;;4921702;29;20118;-75
2022/11/25 09:07:12;;;;;;;18.52;4.60;;;;;;;;;;4919673;29;20036;-74
2022/11/25 09:09:38;;;;;;;11.27;4.22;;;;;;;;;;4923591;29;20024;-75
2022/11/25 09:12:04;;;;;;;13.45;4.72;;;;;;;;;;4908712;29;20043;-74
2022/11/25 09:14:30;;;;;;;16.08;4.43;;;;;;;;;;4908293;29;20369;-74
2022/11/25 09:16:56;;;;;;;13.93;4.03;;;;;;;;;;4924317;29;20439;-78
2022/11/25 09:19:22;;;;;;;9.80;4.18;;;;;;;;;;4924932;28;20408;-74
2022/11/25 09:21:48;;;;;;;7.82;3.67;;;;;;;;;;4926516;29;20035;-75
2022/11/25 09:24:15;;;;;;;10.45;3.65;;;;;;;;;;4919591;29;20040;-74
2022/11/25 09:26:41;;;;;;;11.05;3.45;;;;;;;;;;4924819;29;20047;-75
2022/11/25 09:29:07;;;;;;;11.55;3.75;;;;;;;;;;4923172;29;20298;-75
2022/11/25 09:31:33;;;;;;;11.07;4.53;;;;;;;;;;4925746;29;20060;-74
2022/11/25 09:34:00;;;;;;;14.15;3.95;;;;;;;;;;4920968;29;20031;-78
2022/11/25 09:36:26;;;;;;;12.32;3.78;;;;;;;;;;4927157;29;20088;-74
2022/11/25 09:38:52;;;;;;;16.35;4.43;;;;;;;;;;4923940;29;20596;-74
2022/11/25 09:46:40;;;;;;;10.48;4.35;;;;;;;;;;4925987;29;20350;-73
2022/11/25 09:47:18;;;;;;;13.32;4.13;;;;;;;;;;4921129;29;21045;-73
2022/11/25 09:49:53;;;;;;;17.83;4.25;;;;;;;;;;4926600;29;20035;-74
2022/11/25 09:52:31;;;;;;;10.75;3.33;;;;;;;;;;4924873;29;20038;-78
2022/11/25 09:55:04;;;;;;;33.30;16.90;;;;;;;;;;4937698;29;20090;-73
2022/11/25 09:57:36;;;;;;;14.10;4.05;;;;;;;;;;4935199;29;20036;-73
2022/11/25 10:00:09;;;;;;;11.02;5.40;;;;;;;;;;4932330;29;20401;-82
2022/11/25 10:02:54;;;;;;;16.35;3.78;;;;;;;;;;4922637;29;20499;-76
2022/11/25 10:05:33;;;;;;;12.07;4.03;;;;;;;;;;4923719;29;20513;-76
2022/11/25 10:08:03;;;;;;;9.77;3.35;;;;;;;;;;4924310;29;20036;-76
2022/11/25 10:10:46;;;;;;;10.63;3.47;;;;;;;;;;4919051;29;20042;-78
2022/11/25 10:13:18;;;;;;;13.68;3.47;;;;;;;;;;4920544;29;20757;-76
2022/11/25 10:15:46;;;;;;;7.43;2.72;;;;;;;;;;4917682;29;20020;-75
2022/11/25 10:18:21;;;;;;;8.57;2.75;;;;;;;;;;4922546;29;20381;-75
2022/11/25 10:20:48;;;;;;;14.45;3.42;;;;;;;;;;4923570;28;20061;-76
2022/11/25 10:23:23;;;;;;;9.90;3.33;;;;;;;;;;4925232;29;20099;-78
2022/11/25 10:25:55;;;;;;;9.00;2.92;;;;;;;;;;4925910;29;20508;-75
2022/11/25 10:28:23;;;;;;;8.70;2.33;;;;;;;;;;4923318;29;20028;-76
2022/11/25 10:30:53;;;;;;;21.10;8.23;;;;;;;;;;4922545;29;20067;-75
2022/11/25 10:33:21;;;;;;;16.55;5.07;;;;;;;;;;4924700;29;20032;-77
2022/11/25 10:35:57;;;;;;;12.05;3.47;;;;;;;;;;4923102;29;20032;-73
2022/11/25 10:38:29;;;;;;;5.60;2.60;;;;;;;;;;4926010;29;20103;-80
2022/11/25 10:40:58;;;;;;;7.32;2.30;;;;;;;;;;4922882;29;20466;-73
2022/11/25 10:43:24;;;;;;;10.10;2.67;;;;;;;;;;4926852;29;20421;-73
2022/11/25 10:45:58;;;;;;;14.95;2.67;;;;;;;;;;4919395;29;20044;-73
2022/11/25 10:48:33;;;;;;;9.80;2.72;;;;;;;;;;4923910;29;20040;-74
2022/11/25 10:50:59;;;;;;;9.52;2.40;;;;;;;;;;4928376;29;20039;-75
2022/11/25 10:53:28;;;;;;;8.55;2.33;;;;;;;;;;4923217;29;20035;-74
2022/11/25 10:56:02;;;;;;;16.52;3.33;;;;;;;;;;4923123;29;20032;-74
2022/11/25 10:58:38;;;;;;;12.63;3.88;;;;;;;;;;4925880;29;20028;-77
2022/11/25 11:01:20;;;;;;;8.40;2.35;;;;;;;;;;4923713;29;20103;-77
2022/11/25 11:03:50;;;;;;;15.77;2.45;;;;;;;;;;4928254;29;20067;-75
2022/11/25 11:06:32;;;;;;;14.38;2.42;;;;;;;;;;4941824;29;20027;-76
2022/11/25 11:08:58;;;;;;;13.95;2.65;;;;;;;;;;4933311;29;20395;-76
2022/11/25 11:11:24;;;;;;;14.80;2.80;;;;;;;;;;4933078;29;20105;-75
2022/11/25 11:13:57;;;;;;;12.82;2.45;;;;;;;;;;4951166;29;20027;-75
2022/11/25 11:16:40;;;;;;;15.18;3.00;;;;;;;;;;4936802;29;20031;-74
2022/11/25 11:19:19;;;;;;;13.10;2.88;;;;;;;;;;4940232;28;20032;-76
2022/11/25 11:21:45;;;;;;;12.63;2.03;;;;;;;;;;4964896;28;20077;-76
2022/11/25 11:24:31;;;;;;;16.70;3.72;;;;;;;;;;4950652;29;20122;-78
2022/11/25 11:27:26;;;;;;;21.92;3.58;;;;;;;;;;4951065;28;20035;-77
2022/11/25 11:30:12;;;;;;;11.77;2.47;;;;;;;;;;4929206;28;20048;-78
2022/11/25 11:32:42;;;;;;;16.67;2.55;;;;;;;;;;4947635;28;20074;-76
2022/11/25 11:35:28;;;;;;;15.68;2.22;;;;;;;;;;4955704;28;20519;-76
2022/11/25 11:37:58;;;;;;;20.67;3.65;;;;;;;;;;4932490;28;20166;-74
2022/11/25 11:40:31;;;;;;;15.27;2.55;;;;;;;;;;4951546;28;20405;-74
2022/11/25 11:43:06;;;;;;;14.10;2.33;;;;;;;;;;4945631;28;20046;-78
2022/11/25 11:45:40;;;;;;;15.13;2.72;;;;;;;;;;4946155;28;20047;-79
2022/11/25 11:48:29;;;;;;;17.50;2.95;;;;;;;;;;4949229;28;20059;-76
2022/11/25 11:51:01;;;;;;;17.65;3.15;;;;;;;;;;4927879;28;20035;-73
2022/11/25 11:53:30;;;;;;;28.95;3.85;;;;;;;;;;4940223;28;20054;-74
2022/11/25 11:56:16;;;;;;;16.50;4.32;;;;;;;;;;4960291;28;20034;-76
2022/11/25 11:58:49;;;;;;;20.58;2.83;;;;;;;;;;4951229;28;20487;-74
2022/11/25 12:01:24;;;;;;;16.67;3.15;;;;;;;;;;4964395;28;20109;-74
2022/11/25 12:03:53;;;;;;;20.02;2.83;;;;;;;;;;4945706;28;20035;-73
2022/11/25 12:06:21;;;;;;;16.75;3.17;;;;;;;;;;4949664;28;20034;-78
2022/11/25 12:08:58;;;;;;;17.08;4.05;;;;;;;;;;4958226;28;20030;-74
2022/11/25 12:11:32;;;;;;;20.20;3.40;;;;;;;;;;4950775;28;20039;-74
2022/11/25 12:13:58;;;;;;;17.50;2.72;;;;;;;;;;4967888;28;20062;-76
2022/11/25 12:16:29;;;;;;;19.60;3.85;;;;;;;;;;4934274;28;20103;-75
2022/11/25 12:19:16;;;;;;;19.25;4.03;;;;;;;;;;4971284;28;20038;-77
2022/11/25 12:21:50;;;;;;;20.83;2.78;;;;;;;;;;4960212;28;20403;-77
2022/11/25 12:24:28;;;;;;;19.10;2.88;;;;;;;;;;4956980;28;20057;-74
2022/11/25 12:27:08;;;;;;;17.90;3.80;;;;;;;;;;4956387;28;20027;-75
2022/11/25 12:29:34;;;;;;;26.63;3.78;;;;;;;;;;4964977;28;20361;-73
2022/11/25 12:32:07;;;;;;;16.00;2.83;;;;;;;;;;4961585;28;20049;-76
2022/11/25 12:34:48;;;;;;;16.63;2.33;;;;;;;;;;4957255;28;20109;-79
2022/11/25 12:37:18;;;;;;;16.48;3.88;;;;;;;;;;4962995;28;20086;-74
2022/11/25 12:39:44;;;;;;;19.52;3.22;;;;;;;;;;4953432;29;20059;-74
2022/11/25 12:42:20;;;;;;;17.65;2.92;;;;;;;;;;4951912;28;20035;-75
2022/11/25 12:44:46;;;;;;;13.88;2.50;;;;;;;;;;4934151;29;20040;-77
2022/11/25 12:47:12;;;;;;;18.42;3.25;;;;;;;;;;4962469;28;20155;-73
2022/11/25 12:49:48;;;;;;;21.95;4.75;;;;;;;;;;4951771;28;20491;-73
2022/11/25 12:52:20;;;;;;;21.50;3.60;;;;;;;;;;4960696;28;20086;-74
2022/11/25 12:55:05;;;;;;;15.48;2.63;;;;;;;;;;4960500;28;20023;-73
2022/11/25 12:57:47;;;;;;;21.83;5.00;;;;;;;;;;4964706;28;20078;-76
2022/11/25 13:00:20;;;;;;;17.25;3.78;;;;;;;;;;4949091;28;20039;-74
2022/11/25 13:02:58;;;;;;;14.10;3.13;;;;;;;;;;4959463;28;20046;-74
2022/11/25 13:05:24;;;;;;;26.15;4.53;;;;;;;;;;4961837;28;20030;-74
2022/11/25 13:08:09;;;;;;;24.08;4.00;;;;;;;;;;4957464;28;20036;-74
2022/11/25 13:10:54;;;;;;;18.55;3.00;;;;;;;;;;4971040;28;20027;-74
2022/11/25 13:13:32;;;;;;;13.68;2.55;;;;;;;;;;4960494;28;20504;-73
2022/11/25 13:15:59;;;;;;;15.60;2.58;;;;;;;;;;4958914;28;20051;-75
2022/11/25 13:18:28;;;;;;;19.70;3.67;;;;;;;;;;4955579;28;20042;-73
2022/11/25 13:20:55;;;;;;;25.70;4.05;;;;;;;;;;4942736;28;20055;-74
2022/11/25 13:23:22;;;;;;;13.88;3.55;;;;;;;;;;4968509;28;20038;-74
2022/11/25 13:25:49;;;;;;;21.70;3.20;;;;;;;;;;4957051;28;20464;-75
2022/11/25 13:28:34;;;;;;;16.10;4.45;;;;;;;;;;4953307;28;20063;-73
2022/11/25 13:31:18;;;;;;;22.05;3.28;;;;;;;;;;4959655;28;20748;-74
2022/11/25 13:33:44;;;;;;;20.20;3.67;;;;;;;;;;4959489;28;20034;-73
2022/11/25 13:36:17;;;;;;;16.88;2.92;;;;;;;;;;4963571;28;20035;-74
2022/11/25 13:38:49;;;;;;;30.17;4.40;;;;;;;;;;4951574;28;20074;-73
2022/11/25 13:41:15;;;;;;;16.90;3.92;;;;;;;;;;4933179;29;20042;-73
2022/11/25 13:44:00;;;;;;;22.50;4.10;;;;;;;;;;4963081;28;20031;-73
2022/11/25 13:46:45;;;;;;;22.08;3.47;;;;;;;;;;4951446;28;20503;-75
2022/11/25 13:49:23;;;;;;;25.42;4.68;;;;;;;;;;4958355;28;20077;-72
2022/11/25 13:51:54;;;;;;;20.70;4.35;;;;;;;;;;4955094;28;20388;-74
2022/11/25 13:54:24;;;;;;;18.58;3.67;;;;;;;;;;4953196;28;20666;-73
2022/11/25 13:57:08;;;;;;;23.55;3.88;;;;;;;;;;4948547;29;20023;-74
2022/11/25 13:59:36;;;;;;;22.42;3.75;;;;;;;;;;4950030;28;20373;-73
2022/11/25 14:02:21;;;;;;;20.75;3.63;;;;;;;;;;4951015;28;20035;-76
2022/11/25 14:04:47;;;;;;;13.95;3.40;;;;;;;;;;4951911;29;20396;-74
2022/11/25 14:07:33;;;;;;;20.45;4.13;;;;;;;;;;4950933;28;20042;-78
2022/11/25 14:10:06;;;;;;;18.58;4.60;;;;;;;;;;4961508;28;20027;-77
2022/11/25 14:12:32;;;;;;;;;;;;;;;;;;4952462;28;20031;-75
2022/11/25 14:15:18;;;;;;;16.38;3.50;;;;;;;;;;4951569;29;19934;-75
2022/11/25 14:17:47;;;;;;;22.98;3.53;;;;;;;;;;4952411;28;20079;-73
2022/11/25 14:20:16;;;;;;;16.63;3.28;;;;;;;;;;4947905;28;20082;-76
2022/11/25 14:23:01;;;;;;;25.60;3.67;;;;;;;;;;4951163;29;20043;-74
2022/11/25 14:25:29;;;;;;;17.73;2.83;;;;;;;;;;4951071;28;20106;-74
2022/11/25 14:28:15;;;;;;;20.50;4.00;;;;;;;;;;4963305;28;20023;-73
2022/11/25 14:30:51;;;;;;;13.95;3.17;;;;;;;;;;4963261;28;20044;-76
2022/11/25 14:33:20;;;;;;;30.73;5.15;;;;;;;;;;4955772;28;20177;-75
2022/11/25 14:35:51;;;;;;;15.40;3.35;;;;;;;;;;4961715;28;20513;-75
2022/11/25 14:38:27;;;;;;;22.70;3.05;;;;;;;;;;4948049;28;20034;-76
2022/11/25 14:40:59;;;;;;;20.52;2.92;;;;;;;;;;4966667;28;20413;-76
2022/11/25 14:43:26;;;;;;;21.73;3.33;;;;;;;;;;4964770;28;20416;-75
2022/11/25 14:46:12;;;;;;;21.25;3.35;;;;;;;;;;4961068;28;20543;-76
2022/11/25 14:48:38;;;;;;;22.08;6.05;;;;;;;;;;4956169;28;20066;-74
2022/11/25 14:51:09;;;;;;;25.80;6.57;;;;;;;;;;4947085;28;20039;-76
2022/11/25 14:53:39;;;;;;;24.02;5.85;;;;;;;;;;4952189;28;20388;-75